Time;durP1;ratioP1;P1;durP2;ratioP2;P2;SDS_P1;SDS_P2;PMS_P1;PMS_P2;Temp;Humidity;BMP_temperature;BMP_pressure;BME280_temperature;BME280_humidity;BME280_pressure;Samples;Min_cycle;Max_cycle;Signal;HPM_P1;HPM_P2
2021/09/02 00:01:38;;;;;;;10.23;9.17;;;15.70;99.90;;;;;;5001579;28;20224;-90
2021/09/02 00:04:03;;;;;;;10.67;8.73;;;15.70;99.90;;;;;;5012012;28;20260;-88
2021/09/02 00:06:29;;;;;;;11.60;10.13;;;15.70;99.90;;;;;;4981699;28;20516;-90
2021/09/02 00:08:54;;;;;;;10.53;9.30;;;15.70;99.90;;;;;;5000018;28;20220;-88
2021/09/02 00:11:20;;;;;;;11.50;8.47;;;15.60;99.90;;;;;;5017708;28;20923;-88
2021/09/02 00:13:48;;;;;;;12.33;9.20;;;15.60;99.90;;;;;;4998003;28;20633;-89
2021/09/02 00:16:14;;;;;;;12.40;8.77;;;15.60;99.90;;;;;;4997813;28;20289;-89
2021/09/02 00:18:39;;;;;;;9.47;8.50;;;15.50;99.90;;;;;;5012297;28;20746;-88
2021/09/02 00:21:05;;;;;;;11.60;9.70;;;15.50;99.90;;;;;;5005714;28;20205;-89
2021/09/02 00:23:30;;;;;;;9.67;8.30;;;15.50;99.90;;;;;;5012635;28;20244;-89
2021/09/02 00:25:56;;;;;;;11.67;8.60;;;15.40;99.90;;;;;;5016695;28;20345;-89
2021/09/02 00:28:22;;;;;;;11.93;8.43;;;15.40;99.90;;;;;;5005229;28;20232;-88
2021/09/02 00:30:48;;;;;;;14.33;9.20;;;15.40;99.90;;;;;;5017944;28;20316;-88
2021/09/02 00:33:18;;;;;;;12.07;9.47;;;15.40;99.90;;;;;;5017186;28;20637;-89
2021/09/02 00:35:45;;;;;;;12.47;9.60;;;15.40;99.90;;;;;;5004432;28;20224;-89
2021/09/02 00:38:10;;;;;;;12.27;9.57;;;15.40;99.90;;;;;;5017844;28;20647;-89
2021/09/02 00:40:36;;;;;;;11.60;9.37;;;15.30;99.90;;;;;;5002480;28;21236;-89
2021/09/02 00:43:02;;;;;;;12.90;9.83;;;15.30;99.90;;;;;;5005518;28;20671;-88
2021/09/02 00:45:28;;;;;;;11.53;9.53;;;15.30;99.90;;;;;;4996103;28;20279;-88
2021/09/02 00:47:53;;;;;;;13.33;9.53;;;15.30;99.90;;;;;;4998008;28;20245;-89
2021/09/02 00:50:19;;;;;;;11.93;9.20;;;15.20;99.90;;;;;;5018793;28;20763;-91
2021/09/02 00:52:45;;;;;;;14.27;9.60;;;15.20;99.90;;;;;;5017366;28;20193;-89
2021/09/02 00:55:11;;;;;;;12.43;9.50;;;15.20;99.90;;;;;;5017581;28;20308;-89
2021/09/02 00:57:38;;;;;;;16.70;10.87;;;15.20;99.90;;;;;;5023562;28;21236;-88
2021/09/02 01:00:14;;;;;;;12.83;9.97;;;15.20;99.90;;;;;;5001387;28;20690;-90
2021/09/02 01:02:45;;;;;;;11.53;9.80;;;15.20;99.90;;;;;;5019173;28;20632;-88
2021/09/02 01:05:14;;;;;;;12.90;10.00;;;15.30;99.90;;;;;;4998771;28;21034;-89
2021/09/02 01:07:40;;;;;;;10.23;8.87;;;15.10;99.90;;;;;;5018009;28;20733;-88
2021/09/02 01:10:06;;;;;;;12.63;10.50;;;15.10;99.90;;;;;;5023027;28;21238;-90
2021/09/02 01:12:41;;;;;;;12.27;10.07;;;15.10;99.90;;;;;;5008358;28;20617;-90
2021/09/02 01:15:09;;;;;;;11.57;8.70;;;15.10;99.90;;;;;;5007201;28;20623;-88
2021/09/02 01:17:35;;;;;;;10.73;9.17;;;15.10;99.90;;;;;;5018618;28;21125;-89
2021/09/02 01:20:02;;;;;;;13.60;9.33;;;15.10;99.90;;;;;;5019499;28;20714;-89
2021/09/02 01:22:29;;;;;;;14.93;8.93;;;15.10;99.90;;;;;;5020694;28;20607;-89
2021/09/02 01:25:05;;;;;;;11.57;10.37;;;15.10;99.90;;;;;;5020504;28;21068;-89
2021/09/02 01:27:33;;;;;;;11.67;8.87;;;15.10;99.90;;;;;;5016811;28;20685;-88
2021/09/02 01:30:00;;;;;;;11.30;9.00;;;15.10;99.90;;;;;;5005442;28;20627;-89
2021/09/02 01:32:31;;;;;;;13.07;10.07;;;15.10;99.90;;;;;;5008114;28;20646;-89
2021/09/02 01:34:58;;;;;;;11.90;9.60;;;15.10;99.90;;;;;;5019747;28;20705;-90
2021/09/02 01:37:25;;;;;;;13.20;9.57;;;15.20;99.90;;;;;;5022569;28;20722;-89
2021/09/02 01:39:52;;;;;;;11.93;10.27;;;15.20;99.90;;;;;;5009045;28;20682;-89
2021/09/02 01:42:19;;;;;;;11.37;9.73;;;15.20;99.90;;;;;;5024630;28;21023;-90
2021/09/02 01:44:45;;;;;;;11.17;9.50;;;15.20;99.90;;;;;;5006280;28;20641;-90
2021/09/02 01:47:26;;;;;;;11.53;9.73;;;15.20;99.90;;;;;;5022600;28;20735;-89
2021/09/02 01:49:53;;;;;;;10.80;8.90;;;15.20;99.90;;;;;;5007803;28;20634;-89
2021/09/02 01:52:21;;;;;;;12.40;9.40;;;15.30;99.90;;;;;;5025168;28;20655;-89
2021/09/02 01:54:47;;;;;;;11.80;9.30;;;15.30;99.90;;;;;;5007651;28;20619;-89
2021/09/02 01:57:14;;;;;;;12.93;10.00;;;15.30;99.90;;;;;;5025130;28;20635;-89
2021/09/02 01:59:40;;;;;;;11.87;10.27;;;15.30;99.90;;;;;;5010491;28;20760;-89
2021/09/02 02:02:06;;;;;;;14.63;9.30;;;15.30;99.90;;;;;;5023446;28;20615;-89
2021/09/02 02:04:31;;;;;;;12.80;9.50;;;15.30;99.90;;;;;;5017089;28;20193;-89
2021/09/02 02:06:57;;;;;;;10.60;8.53;;;15.30;99.90;;;;;;5023669;28;20196;-89
2021/09/02 02:09:23;;;;;;;11.93;8.57;;;15.40;99.90;;;;;;5024771;28;20799;-89
2021/09/02 02:11:48;;;;;;;11.40;9.20;;;15.40;99.90;;;;;;5014727;28;20229;-90
2021/09/02 02:14:14;;;;;;;15.73;9.57;;;15.40;99.90;;;;;;5037230;28;20299;-88
2021/09/02 02:16:39;;;;;;;11.90;8.63;;;15.50;99.90;;;;;;5005721;28;20334;-89
2021/09/02 02:19:05;;;;;;;12.63;8.43;;;15.50;99.90;;;;;;5023888;28;20224;-90
2021/09/02 02:21:30;;;;;;;12.27;8.70;;;15.50;99.90;;;;;;5023166;28;20287;-90
2021/09/02 02:23:56;;;;;;;13.87;8.63;;;15.50;99.90;;;;;;5008994;28;20200;-89
2021/09/02 02:26:21;;;;;;;10.37;8.50;;;15.50;99.90;;;;;;5002441;28;20226;-89
2021/09/02 02:28:47;;;;;;;11.60;8.70;;;15.50;99.90;;;;;;5003032;28;20385;-89
2021/09/02 02:31:12;;;;;;;10.00;8.10;;;15.50;99.90;;;;;;5024435;28;20300;-89
2021/09/02 02:33:38;;;;;;;11.10;7.77;;;15.50;99.90;;;;;;5003596;28;20247;-89
2021/09/02 02:36:03;;;;;;;13.20;9.80;;;15.50;99.90;;;;;;5022867;28;20868;-90
2021/09/02 02:38:30;;;;;;;12.10;8.67;;;15.50;99.90;;;;;;5021814;28;20232;-89
2021/09/02 02:40:57;;;;;;;11.13;8.67;;;15.50;99.90;;;;;;5009876;28;20291;-89
2021/09/02 02:43:23;;;;;;;12.37;9.43;;;15.60;99.90;;;;;;5020298;28;20664;-88
2021/09/02 02:45:49;;;;;;;12.73;8.13;;;15.50;99.90;;;;;;5011419;28;21206;-89
2021/09/02 02:48:14;;;;;;;10.70;8.90;;;15.50;99.90;;;;;;5018927;28;20621;-89
2021/09/02 02:50:40;;;;;;;9.80;8.30;;;15.60;99.90;;;;;;5021867;28;20258;-89
2021/09/02 02:53:05;;;;;;;10.80;8.07;;;15.50;99.90;;;;;;5019761;28;20636;-89
2021/09/02 02:55:31;;;;;;;10.70;8.00;;;15.50;99.90;;;;;;5023450;28;20233;-90
2021/09/02 02:57:56;;;;;;;12.87;9.60;;;15.50;99.90;;;;;;5018384;28;20204;-88
2021/09/02 03:00:22;;;;;;;9.67;8.00;;;15.50;99.90;;;;;;5003523;28;20216;-89
2021/09/02 03:02:48;;;;;;;10.60;8.60;;;15.50;99.90;;;;;;5008038;28;20743;-89
2021/09/02 03:05:13;;;;;;;14.07;8.63;;;15.50;99.90;;;;;;5022279;28;20240;-89
2021/09/02 03:07:39;;;;;;;12.10;7.80;;;15.80;99.90;;;;;;5017478;28;20684;-89
2021/09/02 03:10:06;;;;;;;12.50;8.47;;;15.80;99.90;;;;;;5018757;28;20380;-89
2021/09/02 03:12:34;;;;;;;11.60;8.93;;;15.60;99.90;;;;;;5022729;28;20189;-88
2021/09/02 03:14:59;;;;;;;10.60;8.67;;;15.60;99.90;;;;;;5004846;28;20642;-90
2021/09/02 03:17:25;;;;;;;12.63;8.43;;;15.60;99.90;;;;;;5016616;28;20627;-88
2021/09/02 03:19:51;;;;;;;13.13;8.80;;;15.90;99.90;;;;;;5008133;28;20223;-89
2021/09/02 03:22:16;;;;;;;10.30;7.37;;;15.50;99.90;;;;;;5004598;28;20264;-88
2021/09/02 03:24:42;;;;;;;11.40;8.60;;;15.60;99.90;;;;;;5019403;28;20213;-88
2021/09/02 03:27:07;;;;;;;12.20;7.73;;;15.60;99.90;;;;;;5020585;28;20189;-89
2021/09/02 03:29:33;;;;;;;10.03;8.10;;;15.80;99.90;;;;;;5024955;28;20270;-88
2021/09/02 03:31:58;;;;;;;9.47;8.07;;;15.60;99.90;;;;;;5022542;28;20362;-89
2021/09/02 03:34:24;;;;;;;11.40;8.30;;;15.60;99.90;;;;;;5009946;28;20234;-89
2021/09/02 03:36:51;;;;;;;13.83;8.70;;;15.60;99.90;;;;;;5018835;28;20240;-89
2021/09/02 03:39:17;;;;;;;12.93;9.23;;;15.60;99.90;;;;;;5019337;28;20306;-91
2021/09/02 03:41:42;;;;;;;15.83;8.80;;;15.60;99.90;;;;;;5003423;28;20655;-90
2021/09/02 03:44:11;;;;;;;13.83;9.07;;;15.60;99.90;;;;;;5025117;28;20764;-88
2021/09/02 03:46:36;;;;;;;12.63;8.80;;;15.60;99.90;;;;;;5004279;28;20771;-89
2021/09/02 03:49:02;;;;;;;12.83;8.60;;;15.60;99.90;;;;;;5019840;28;21018;-88
2021/09/02 03:51:28;;;;;;;12.07;8.30;;;15.60;99.90;;;;;;5018914;28;20212;-89
2021/09/02 03:53:53;;;;;;;14.80;8.60;;;15.60;99.90;;;;;;5020100;28;20615;-89
2021/09/02 03:56:19;;;;;;;10.87;8.00;;;15.60;99.90;;;;;;5023417;28;20235;-88
2021/09/02 03:58:44;;;;;;;13.30;8.00;;;15.60;99.90;;;;;;5022002;28;20547;-89
2021/09/02 04:01:10;;;;;;;13.07;8.40;;;15.50;99.90;;;;;;5018409;28;20205;-89
2021/09/02 04:03:36;;;;;;;13.87;8.50;;;15.60;99.90;;;;;;5018282;28;20253;-88
2021/09/02 04:06:01;;;;;;;10.97;8.67;;;15.60;99.90;;;;;;5008805;28;20697;-87
2021/09/02 04:08:27;;;;;;;12.90;7.97;;;15.60;99.90;;;;;;5001259;28;20200;-88
2021/09/02 04:10:52;;;;;;;12.63;7.50;;;15.60;99.90;;;;;;5023990;28;20213;-88
2021/09/02 04:13:18;;;;;;;12.87;8.77;;;15.60;99.90;;;;;;5001767;28;20223;-88
2021/09/02 04:15:44;;;;;;;14.00;8.60;;;15.60;99.90;;;;;;5019244;28;20216;-88
2021/09/02 04:18:12;;;;;;;12.93;8.40;;;15.60;99.90;;;;;;5009138;28;20213;-88
2021/09/02 04:20:38;;;;;;;11.37;8.03;;;15.60;99.90;;;;;;5017598;28;20694;-88
2021/09/02 04:23:04;;;;;;;11.30;8.67;;;15.70;99.90;;;;;;4996875;28;22146;-89
2021/09/02 04:25:30;;;;;;;13.83;8.70;;;15.70;99.90;;;;;;5020422;28;20270;-89
2021/09/02 04:27:55;;;;;;;13.97;7.90;;;15.70;99.90;;;;;;5021076;28;20312;-89
2021/09/02 04:30:21;;;;;;;18.07;8.80;;;15.70;99.90;;;;;;4999144;28;20663;-87
2021/09/02 04:32:47;;;;;;;11.73;8.03;;;15.70;99.90;;;;;;5001616;28;20194;-89
2021/09/02 04:35:13;;;;;;;12.67;9.57;;;15.60;99.90;;;;;;5041379;28;20739;-87
2021/09/02 04:37:41;;;;;;;13.23;8.57;;;15.60;99.90;;;;;;5006210;28;20197;-88
2021/09/02 04:40:08;;;;;;;14.30;8.60;;;15.60;99.90;;;;;;5023142;28;20772;-88
2021/09/02 04:42:34;;;;;;;16.83;9.00;;;15.70;99.90;;;;;;5025441;28;20650;-87
2021/09/02 04:45:01;;;;;;;15.27;8.27;;;15.70;99.90;;;;;;5001679;28;20658;-89
2021/09/02 04:47:27;;;;;;;14.47;7.97;;;15.70;99.90;;;;;;5017540;28;20631;-88
2021/09/02 04:49:53;;;;;;;12.00;7.97;;;15.70;99.90;;;;;;5024016;28;20627;-88
2021/09/02 04:52:19;;;;;;;10.23;8.33;;;15.70;99.90;;;;;;5015097;28;20621;-89
2021/09/02 04:54:45;;;;;;;9.00;7.53;;;15.80;99.90;;;;;;5021219;28;20624;-90
2021/09/02 04:57:11;;;;;;;13.20;8.47;;;15.70;99.90;;;;;;5019158;28;20193;-92
2021/09/02 04:59:36;;;;;;;15.27;8.60;;;15.70;99.90;;;;;;5024658;28;20207;-92
2021/09/02 05:02:02;;;;;;;13.50;8.37;;;15.70;99.90;;;;;;5013088;28;20266;-96
2021/09/02 05:04:30;;;;;;;13.53;7.73;;;15.70;99.90;;;;;;5024964;28;20196;-95
2021/09/02 05:06:55;;;;;;;13.17;8.47;;;15.80;99.90;;;;;;5029403;28;20189;-92
2021/09/02 05:09:21;;;;;;;11.17;8.43;;;15.60;99.90;;;;;;5009894;28;20778;-92
2021/09/02 05:11:47;;;;;;;12.70;8.20;;;15.80;99.90;;;;;;5018954;28;20303;-90
2021/09/02 05:14:12;;;;;;;13.13;8.80;;;15.70;99.90;;;;;;5019437;28;20181;-91
2021/09/02 05:16:38;;;;;;;11.97;8.07;;;15.70;99.90;;;;;;5021290;28;20239;-90
2021/09/02 05:19:03;;;;;;;14.73;8.40;;;15.80;99.90;;;;;;5024840;28;20213;-91
2021/09/02 05:21:29;;;;;;;14.57;8.53;;;16.10;99.90;;;;;;5017788;28;20221;-92
2021/09/02 05:23:55;;;;;;;13.93;8.07;;;16.10;99.90;;;;;;5001575;28;20196;-87
2021/09/02 05:26:20;;;;;;;13.43;8.20;;;16.00;99.90;;;;;;4992950;28;20224;-87
2021/09/02 05:28:46;;;;;;;15.17;9.10;;;16.00;99.90;;;;;;4997057;28;20193;-89
2021/09/02 05:31:11;;;;;;;15.30;9.27;;;16.00;99.90;;;;;;5014482;28;20224;-90
2021/09/02 05:33:37;;;;;;;11.80;8.67;;;16.10;99.90;;;;;;4998915;28;20204;-89
2021/09/02 05:36:03;;;;;;;13.37;9.43;;;16.10;99.90;;;;;;5006721;28;20760;-90
2021/09/02 05:38:28;;;;;;;12.80;8.40;;;16.10;99.90;;;;;;5016458;28;20315;-90
2021/09/02 05:40:54;;;;;;;16.23;8.97;;;16.10;99.90;;;;;;5020498;28;20602;-89
2021/09/02 05:43:19;;;;;;;14.07;9.70;;;16.10;99.90;;;;;;5024935;28;20204;-89
2021/09/02 05:45:45;;;;;;;13.23;9.53;;;16.10;99.90;;;;;;5019743;28;20244;-89
2021/09/02 05:48:10;;;;;;;16.50;9.70;;;16.10;99.90;;;;;;5015817;28;20195;-89
2021/09/02 05:50:36;;;;;;;14.03;8.53;;;16.10;99.90;;;;;;5013624;28;20628;-89
2021/09/02 05:53:02;;;;;;;15.10;9.50;;;16.10;99.90;;;;;;5006691;28;20192;-89
2021/09/02 05:55:27;;;;;;;15.27;9.53;;;16.10;99.90;;;;;;5007724;28;20231;-89
2021/09/02 05:57:53;;;;;;;14.50;8.33;;;16.40;99.90;;;;;;5019736;28;20198;-89
2021/09/02 06:00:19;;;;;;;15.73;9.13;;;16.00;99.90;;;;;;5000030;28;20751;-89
2021/09/02 06:02:44;;;;;;;17.17;9.70;;;16.10;99.90;;;;;;5007630;28;20181;-88
2021/09/02 06:05:10;;;;;;;12.40;9.33;;;16.10;99.90;;;;;;5000640;28;20468;-88
2021/09/02 06:07:36;;;;;;;15.50;9.20;;;16.10;99.90;;;;;;5000343;28;20185;-90
2021/09/02 06:10:02;;;;;;;16.23;9.80;;;16.10;99.90;;;;;;5015584;28;20262;-89
2021/09/02 06:12:28;;;;;;;14.50;9.23;;;16.10;99.90;;;;;;4999365;28;20193;-89
2021/09/02 06:14:53;;;;;;;15.53;9.80;;;16.10;99.90;;;;;;5006926;28;20653;-88
2021/09/02 06:17:19;;;;;;;15.20;9.63;;;16.50;99.90;;;;;;5019849;28;20423;-88
2021/09/02 06:19:44;;;;;;;16.23;9.50;;;16.20;99.90;;;;;;5001536;28;20248;-88
2021/09/02 06:22:12;;;;;;;14.10;9.20;;;16.20;99.90;;;;;;5021119;28;20768;-87
2021/09/02 06:24:38;;;;;;;13.83;9.67;;;16.20;99.90;;;;;;5017426;28;20189;-88
2021/09/02 06:27:04;;;;;;;16.30;10.10;;;16.20;99.90;;;;;;5026512;28;21228;-88
2021/09/02 06:29:29;;;;;;;18.87;10.20;;;16.20;99.90;;;;;;5030457;28;20229;-88
2021/09/02 06:31:55;;;;;;;20.80;10.60;;;16.30;99.90;;;;;;5024660;28;20217;-87
2021/09/02 06:34:21;;;;;;;15.63;10.40;;;16.30;99.90;;;;;;5019985;28;20760;-87
2021/09/02 06:36:46;;;;;;;13.43;10.60;;;16.30;99.90;;;;;;5022206;28;20599;-87
2021/09/02 06:39:12;;;;;;;15.93;10.80;;;16.30;99.90;;;;;;5026195;28;20225;-89
2021/09/02 06:41:38;;;;;;;15.53;10.23;;;16.30;99.90;;;;;;5025080;28;20300;-87
2021/09/02 06:44:03;;;;;;;16.03;9.87;;;16.30;99.90;;;;;;5023847;28;20207;-87
2021/09/02 06:46:29;;;;;;;14.10;9.43;;;16.30;99.90;;;;;;5027475;28;20250;-87
2021/09/02 06:48:55;;;;;;;11.47;9.33;;;16.30;99.90;;;;;;5020178;28;20184;-88
2021/09/02 06:51:21;;;;;;;12.30;9.40;;;16.40;99.90;;;;;;5018679;28;20660;-88
2021/09/02 06:53:46;;;;;;;18.03;10.63;;;16.30;99.90;;;;;;5023996;28;20657;-87
2021/09/02 06:56:12;;;;;;;14.37;10.70;;;16.30;99.90;;;;;;5026191;28;20640;-88
2021/09/02 06:58:37;;;;;;;14.93;10.37;;;16.30;99.90;;;;;;5024012;28;20631;-88
2021/09/02 07:01:03;;;;;;;15.77;10.80;;;16.40;99.90;;;;;;5011556;28;20615;-88
2021/09/02 07:03:28;;;;;;;14.50;10.63;;;16.40;99.90;;;;;;5026092;28;20184;-87
2021/09/02 07:05:54;;;;;;;17.97;11.60;;;16.30;99.90;;;;;;5019213;28;20201;-88
2021/09/02 07:08:19;;;;;;;16.80;11.60;;;16.20;99.90;;;;;;5009482;28;20239;-86
2021/09/02 07:10:45;;;;;;;14.50;10.80;;;16.30;99.90;;;;;;5028871;28;20311;-88
2021/09/02 07:13:11;;;;;;;15.57;10.10;;;16.30;99.90;;;;;;5022032;28;20203;-87
2021/09/02 07:15:36;;;;;;;14.90;10.17;;;16.40;99.90;;;;;;5027320;28;20290;-88
2021/09/02 07:18:02;;;;;;;14.80;10.23;;;16.50;99.90;;;;;;5019619;28;20185;-88
2021/09/02 07:20:28;;;;;;;17.13;11.20;;;16.70;99.90;;;;;;5025033;28;20210;-87
2021/09/02 07:22:54;;;;;;;13.13;10.60;;;16.50;99.90;;;;;;5016092;28;20197;-88
2021/09/02 07:25:20;;;;;;;16.90;10.80;;;16.50;99.90;;;;;;5023335;28;20222;-88
2021/09/02 07:27:45;;;;;;;11.97;9.93;;;16.50;99.90;;;;;;5023075;28;20306;-88
2021/09/02 07:30:12;;;;;;;13.43;10.10;;;16.60;99.90;;;;;;5025065;28;20667;-86
2021/09/02 07:32:37;;;;;;;11.20;9.60;;;17.00;99.90;;;;;;5027438;28;20192;-88
2021/09/02 07:35:05;;;;;;;12.90;9.87;;;16.70;99.90;;;;;;5028421;28;20649;-88
2021/09/02 07:37:32;;;;;;;13.33;9.97;;;16.80;99.90;;;;;;5023680;28;20197;-88
2021/09/02 07:39:58;;;;;;;15.07;10.03;;;17.00;99.90;;;;;;5022777;28;20726;-88
2021/09/02 07:42:24;;;;;;;17.83;11.00;;;16.80;99.90;;;;;;5028299;28;20633;-87
2021/09/02 07:44:49;;;;;;;16.43;10.07;;;16.90;99.90;;;;;;5016760;28;20312;-87
2021/09/02 07:47:15;;;;;;;13.83;10.97;;;16.90;99.90;;;;;;5021625;28;20189;-88
2021/09/02 07:49:41;;;;;;;13.80;10.80;;;16.90;99.90;;;;;;5005322;28;21288;-87
2021/09/02 07:52:09;;;;;;;17.27;10.67;;;16.90;99.90;;;;;;5024006;28;21009;-87
2021/09/02 07:54:35;;;;;;;12.43;9.97;;;17.30;99.90;;;;;;5018963;28;20198;-87
2021/09/02 07:57:00;;;;;;;12.07;10.30;;;17.40;99.90;;;;;;5021286;28;20975;-87
2021/09/02 07:59:26;;;;;;;14.00;9.83;;;17.30;99.90;;;;;;5021694;28;20247;-87
2021/09/02 08:01:51;;;;;;;14.07;10.17;;;17.10;99.90;;;;;;5018951;28;20208;-87
2021/09/02 08:04:17;;;;;;;14.87;9.73;;;17.50;99.90;;;;;;5024051;28;20189;-87
2021/09/02 08:06:43;;;;;;;12.77;9.70;;;17.20;99.90;;;;;;5024257;28;20816;-87
2021/09/02 08:09:08;;;;;;;13.77;10.37;;;17.30;99.90;;;;;;5020602;28;20188;-87
2021/09/02 08:11:34;;;;;;;13.20;9.43;;;17.40;99.90;;;;;;5009042;28;20205;-87
2021/09/02 08:13:59;;;;;;;12.47;9.80;;;17.40;99.90;;;;;;5019958;28;20263;-87
2021/09/02 08:16:25;;;;;;;12.60;10.00;;;17.50;99.90;;;;;;5021651;28;20758;-87
2021/09/02 08:18:52;;;;;;;15.77;10.37;;;17.60;99.90;;;;;;5021997;28;20232;-86
2021/09/02 08:21:18;;;;;;;11.93;9.00;;;17.50;99.90;;;;;;5023913;28;20804;-87
2021/09/02 08:23:44;;;;;;;9.67;8.67;;;17.50;99.90;;;;;;5027532;28;20723;-87
2021/09/02 08:26:10;;;;;;;12.63;9.23;;;17.60;99.90;;;;;;5003462;28;20719;-87
2021/09/02 08:28:35;;;;;;;14.70;9.77;;;17.70;99.90;;;;;;5021880;28;20278;-87
2021/09/02 08:31:01;;;;;;;12.33;9.60;;;17.70;99.90;;;;;;5002552;28;20276;-87
2021/09/02 08:33:27;;;;;;;13.57;9.40;;;17.70;99.90;;;;;;5022837;28;20201;-87
2021/09/02 08:35:53;;;;;;;13.00;8.73;;;17.80;99.90;;;;;;5018558;28;20296;-87
2021/09/02 08:38:22;;;;;;;10.53;8.27;;;17.90;99.90;;;;;;5021326;28;20654;-86
2021/09/02 08:40:48;;;;;;;11.60;8.30;;;17.90;99.90;;;;;;5022312;28;20667;-87
2021/09/02 08:43:13;;;;;;;11.17;8.60;;;17.90;99.90;;;;;;5020222;28;20964;-87
2021/09/02 08:45:39;;;;;;;11.93;8.47;;;18.00;99.90;;;;;;5017704;28;20627;-86
2021/09/02 08:48:05;;;;;;;9.43;8.07;;;17.90;99.90;;;;;;5008999;28;20679;-86
2021/09/02 08:50:38;;;;;;;10.37;7.93;;;17.60;99.90;;;;;;5004770;28;20586;-86
2021/09/02 08:53:05;;;;;;;8.97;7.97;;;17.70;99.90;;;;;;5019318;28;20608;-86
2021/09/02 08:55:31;;;;;;;11.73;7.67;;;17.70;99.90;;;;;;5018971;28;20622;-87
2021/09/02 08:57:57;;;;;;;8.47;6.80;;;17.80;99.90;;;;;;5021118;28;20643;-87
2021/09/02 09:00:25;;;;;;;11.80;6.50;;;17.90;99.90;;;;;;5023703;28;20639;-87
2021/09/02 09:03:05;;;;;;;12.43;7.23;;;17.90;99.90;;;;;;5018983;28;20634;-86
2021/09/02 09:05:32;;;;;;;10.97;7.37;;;18.00;99.90;;;;;;5019413;28;20992;-87
2021/09/02 09:07:58;;;;;;;10.17;7.20;;;18.00;99.90;;;;;;5019687;28;20612;-86
2021/09/02 09:10:26;;;;;;;9.33;6.43;;;18.00;99.90;;;;;;5021849;28;20638;-87
2021/09/02 09:13:02;;;;;;;9.33;6.30;;;18.10;99.90;;;;;;5010395;28;20213;-87
2021/09/02 09:15:34;;;;;;;7.60;6.37;;;18.20;99.90;;;;;;5020186;28;20620;-86
2021/09/02 09:18:15;;;;;;;9.37;6.47;;;18.30;99.90;;;;;;5008733;28;20707;-87
2021/09/02 09:20:41;;;;;;;7.70;6.53;;;18.30;99.90;;;;;;5020301;28;20722;-86
2021/09/02 09:23:06;;;;;;;8.60;7.67;;;18.30;99.90;;;;;;5019547;28;20624;-87
2021/09/02 09:25:32;;;;;;;9.30;8.10;;;18.20;99.90;;;;;;5022305;28;20356;-87
2021/09/02 09:27:59;;;;;;;9.40;7.30;;;18.30;99.90;;;;;;5022847;28;20189;-86
2021/09/02 09:30:26;;;;;;;8.70;7.67;;;18.30;99.90;;;;;;5008125;28;20216;-87
2021/09/02 09:32:59;;;;;;;9.90;8.07;;;18.40;99.90;;;;;;5009775;28;20617;-86
2021/09/02 09:35:31;;;;;;;10.37;8.63;;;18.80;99.90;;;;;;5022332;28;21201;-87
2021/09/02 09:38:08;;;;;;;10.73;8.70;;;18.30;99.90;;;;;;5019599;28;20699;-86
2021/09/02 09:40:43;;;;;;;9.80;8.23;;;18.30;99.90;;;;;;5022166;28;20648;-86
2021/09/02 09:43:20;;;;;;;11.40;8.20;;;18.30;99.90;;;;;;5021238;28;20584;-86
2021/09/02 09:45:49;;;;;;;10.00;8.30;;;18.30;99.90;;;;;;5022456;28;20626;-86
2021/09/02 09:48:17;;;;;;;9.63;8.50;;;18.30;99.90;;;;;;5023287;28;20611;-87
2021/09/02 09:51:08;;;;;;;12.23;8.80;;;18.20;99.90;;;;;;5020720;28;20655;-86
2021/09/02 09:53:34;;;;;;;14.40;8.53;;;18.20;99.90;;;;;;5013614;28;20623;-86
2021/09/02 09:55:59;;;;;;;9.53;8.10;;;18.20;99.90;;;;;;5021984;28;20666;-87
2021/09/02 09:58:27;;;;;;;9.30;7.30;;;18.20;99.90;;;;;;5030518;28;20640;-86
2021/09/02 10:00:55;;;;;;;11.83;8.40;;;18.30;99.90;;;;;;5025908;28;20212;-87
2021/09/02 10:03:21;;;;;;;10.20;7.67;;;18.30;99.90;;;;;;5020990;28;20623;-87
2021/09/02 10:05:51;;;;;;;10.30;8.37;;;18.30;99.90;;;;;;5010916;28;20792;-87
2021/09/02 10:08:18;;;;;;;15.40;9.37;;;18.30;99.90;;;;;;5024667;28;20655;-87
2021/09/02 10:10:47;;;;;;;9.83;8.27;;;18.30;99.90;;;;;;5024048;28;20717;-86
2021/09/02 10:13:13;;;;;;;12.47;8.37;;;18.30;99.90;;;;;;5022093;28;21065;-87
2021/09/02 10:15:39;;;;;;;9.70;8.73;;;18.20;99.90;;;;;;5011687;28;20660;-87
2021/09/02 10:18:05;;;;;;;12.57;8.90;;;18.20;99.90;;;;;;5026372;28;20705;-86
2021/09/02 10:20:36;;;;;;;9.77;7.83;;;18.30;99.90;;;;;;5024172;28;20296;-87
2021/09/02 10:23:03;;;;;;;12.90;9.37;;;18.30;99.90;;;;;;5023188;28;20677;-87
2021/09/02 10:25:32;;;;;;;11.90;8.33;;;18.60;99.90;;;;;;5025598;28;21253;-86
2021/09/02 10:28:03;;;;;;;12.83;8.03;;;18.40;99.90;;;;;;5024274;28;20753;-86
2021/09/02 10:30:30;;;;;;;10.90;8.27;;;18.60;99.90;;;;;;5011510;28;20717;-87
2021/09/02 10:32:58;;;;;;;11.10;8.30;;;18.40;99.90;;;;;;5029056;28;20675;-86
2021/09/02 10:35:26;;;;;;;8.90;7.23;;;18.40;99.90;;;;;;5021947;28;20703;-86
2021/09/02 10:37:56;;;;;;;11.47;7.70;;;18.50;99.90;;;;;;5021585;28;20712;-86
2021/09/02 10:40:21;;;;;;;10.17;7.30;;;18.50;99.90;;;;;;5023906;28;20999;-87
2021/09/02 10:42:49;;;;;;;8.83;7.90;;;18.50;99.90;;;;;;5007821;28;20620;-86
2021/09/02 10:45:27;;;;;;;9.00;7.80;;;18.50;99.90;;;;;;5025195;28;20262;-86
2021/09/02 10:48:01;;;;;;;11.60;8.37;;;18.50;99.90;;;;;;5023034;28;21412;-87
2021/09/02 10:50:29;;;;;;;12.33;7.73;;;18.50;99.90;;;;;;5025089;28;20649;-86
2021/09/02 10:53:06;;;;;;;11.13;8.53;;;18.50;99.90;;;;;;5023561;28;20615;-87
2021/09/02 10:55:36;;;;;;;11.13;7.30;;;18.60;99.90;;;;;;5023059;28;20645;-86
2021/09/02 10:58:05;;;;;;;15.00;8.30;;;18.50;99.90;;;;;;5013317;28;20658;-86
2021/09/02 11:00:42;;;;;;;9.50;7.23;;;18.50;99.90;;;;;;5024827;28;20690;-86
2021/09/02 11:03:39;;;;;;;11.10;8.50;;;18.50;99.90;;;;;;5022486;28;20622;-87
2021/09/02 11:06:05;;;;;;;10.40;8.87;;;18.50;99.90;;;;;;5021527;28;20684;-86
2021/09/02 11:08:37;;;;;;;10.03;8.57;;;18.50;99.90;;;;;;5009015;28;21327;-86
2021/09/02 11:11:20;;;;;;;16.30;8.37;;;18.50;99.90;;;;;;5018523;28;20216;-86
2021/09/02 11:13:51;;;;;;;9.40;8.53;;;18.60;99.90;;;;;;5025242;28;20722;-86
2021/09/02 11:16:19;;;;;;;10.00;8.40;;;18.60;99.90;;;;;;5012154;28;20726;-86
2021/09/02 11:18:48;;;;;;;11.13;7.80;;;18.70;99.90;;;;;;5031527;28;20655;-86
2021/09/02 11:21:25;;;;;;;11.70;8.70;;;18.70;99.90;;;;;;5031318;28;20636;-87
2021/09/02 11:24:00;;;;;;;11.60;8.50;;;18.70;99.90;;;;;;5012266;28;20623;-86
2021/09/02 11:26:37;;;;;;;10.00;7.90;;;18.70;99.90;;;;;;5024765;28;20640;-86
2021/09/02 11:29:07;;;;;;;8.90;7.90;;;18.80;99.90;;;;;;5010294;28;20607;-86
2021/09/02 11:31:33;;;;;;;10.73;7.80;;;18.80;99.90;;;;;;5016123;28;20679;-88
2021/09/02 11:34:00;;;;;;;12.90;8.20;;;18.80;99.90;;;;;;5028471;28;20596;-84
2021/09/02 11:36:27;;;;;;;10.13;8.30;;;18.90;99.90;;;;;;5028751;28;20690;-83
2021/09/02 11:39:09;;;;;;;11.07;8.40;;;18.90;99.90;;;;;;5027986;28;20656;-85
2021/09/02 11:41:34;;;;;;;11.20;9.07;;;18.80;99.90;;;;;;5032725;28;20643;-85
2021/09/02 11:44:01;;;;;;;10.97;8.57;;;18.90;99.90;;;;;;5018286;28;20699;-83
2021/09/02 11:46:27;;;;;;;9.27;7.77;;;19.20;99.90;;;;;;5025580;28;20227;-87
2021/09/02 11:48:56;;;;;;;11.60;9.00;;;18.80;99.90;;;;;;5030005;28;20642;-86
2021/09/02 11:51:31;;;;;;;11.33;8.40;;;18.90;99.90;;;;;;5015792;28;20680;-90
2021/09/02 11:54:07;;;;;;;9.20;7.50;;;19.00;99.90;;;;;;5025259;28;20635;-86
2021/09/02 11:56:35;;;;;;;11.67;8.23;;;19.00;99.90;;;;;;5028295;28;20990;-86
2021/09/02 11:59:03;;;;;;;9.43;8.00;;;19.10;99.90;;;;;;5027686;28;21137;-88
2021/09/02 12:01:29;;;;;;;10.83;7.17;;;19.40;99.90;;;;;;5025872;28;20639;-87
2021/09/02 12:03:55;;;;;;;8.93;7.30;;;19.20;99.90;;;;;;5025614;28;20681;-86
2021/09/02 12:06:29;;;;;;;9.00;7.83;;;19.40;99.90;;;;;;5024908;28;20419;-86
2021/09/02 12:08:59;;;;;;;7.97;6.40;;;19.20;99.90;;;;;;5009333;28;20572;-86
2021/09/02 12:11:25;;;;;;;8.13;6.47;;;19.20;99.90;;;;;;5008818;28;20706;-86
2021/09/02 12:13:54;;;;;;;10.23;7.33;;;19.20;99.90;;;;;;5023586;28;20611;-85
2021/09/02 12:16:22;;;;;;;8.50;6.37;;;19.00;99.90;;;;;;5021334;28;20231;-88
2021/09/02 12:18:57;;;;;;;9.93;6.37;;;19.00;99.90;;;;;;5024033;28;20678;-88
2021/09/02 12:21:28;;;;;;;7.87;6.93;;;19.00;99.90;;;;;;5008905;28;20651;-85
2021/09/02 12:24:11;;;;;;;10.53;6.60;;;19.10;99.90;;;;;;5021973;28;20688;-86
2021/09/02 12:26:55;;;;;;;10.37;6.23;;;19.20;99.90;;;;;;5007463;28;20742;-83
2021/09/02 12:29:23;;;;;;;9.00;6.83;;;19.20;99.90;;;;;;5026328;28;20618;-85
2021/09/02 12:31:53;;;;;;;7.93;7.17;;;19.20;99.90;;;;;;5029946;28;20667;-83
2021/09/02 12:34:20;;;;;;;8.93;7.13;;;19.20;99.90;;;;;;5030700;28;21135;-84
2021/09/02 12:37:04;;;;;;;8.20;7.10;;;19.20;99.90;;;;;;5012714;28;20734;-90
2021/09/02 12:39:32;;;;;;;8.27;6.37;;;19.10;99.90;;;;;;5023921;28;20695;-86